createdAt,value
2023-04-08T00:00:17.677Z,98366.34
2023-04-08T00:02:46.954Z,98359.25
2023-04-08T00:05:16.084Z,98377.78
2023-04-08T00:07:46.563Z,98374.69
2023-04-08T00:10:18.311Z,98380.06
2023-04-08T00:12:55.492Z,98379.44
2023-04-08T00:15:23.455Z,98377.78
2023-04-08T00:17:56.872Z,98365.19
2023-04-08T00:23:13.491Z,98376.09
2023-04-08T00:28:31.015Z,98377.56
2023-04-08T00:31:07.989Z,98377.59
2023-04-08T00:33:38.573Z,98363.88
2023-04-08T00:36:22.304Z,98380.47
2023-04-08T00:38:59.852Z,98376.38
2023-04-08T00:41:43.314Z,98349.88
2023-04-08T00:44:19.779Z,98373.72
2023-04-08T00:46:58.440Z,98372.88
2023-04-08T00:49:35.453Z,98366.38
2023-04-08T00:52:13.097Z,98362.63
2023-04-08T00:54:54.144Z,98354.75
2023-04-08T00:57:24.416Z,98334.59
2023-04-08T00:59:55.450Z,98356.00
2023-04-08T01:02:55.850Z,98341.19
2023-04-08T01:05:52.684Z,98349.38
2023-04-08T01:08:23.205Z,98349.16
2023-04-08T01:11:04.579Z,98345.56
2023-04-08T01:13:41.481Z,98352.13
2023-04-08T01:19:02.070Z,98350.53
2023-04-08T01:21:45.962Z,98345.03
2023-04-08T01:24:40.568Z,98350.16
2023-04-08T01:27:11.409Z,98351.31
2023-04-08T01:29:50.282Z,98350.22
2023-04-08T01:32:45.146Z,98343.97
2023-04-08T01:35:16.627Z,98348.34
2023-04-08T01:37:48.426Z,98343.94
2023-04-08T01:40:19.805Z,98344.22
2023-04-08T01:42:51.449Z,98346.97
2023-04-08T01:45:30.077Z,98345.59
2023-04-08T01:48:09.262Z,98348.34
2023-04-08T01:50:44.518Z,98349.38
2023-04-08T01:53:18.067Z,98353.25
2023-04-08T01:56:05.609Z,98347.72
2023-04-08T01:58:41.619Z,98354.78
2023-04-08T02:01:20.898Z,98352.88
2023-04-08T02:04:03.060Z,98349.88
2023-04-08T02:09:24.599Z,98344.19
2023-04-08T02:11:57.498Z,98352.72
2023-04-08T02:14:28.528Z,98349.44
2023-04-08T02:17:27.086Z,98328.59
2023-04-08T02:20:06.983Z,98350.53
2023-04-08T02:23:08.911Z,98350.78
2023-04-08T02:25:41.655Z,98349.13
2023-04-08T02:28:18.040Z,98350.78
2023-04-08T02:30:54.642Z,98334.91
2023-04-08T02:33:28.403Z,98333.28
2023-04-08T02:36:15.080Z,98348.06
2023-04-08T02:38:52.943Z,98348.59
2023-04-08T02:41:24.632Z,98344.50
2023-04-08T02:44:03.415Z,98354.34
2023-04-08T02:46:48.372Z,98349.13
2023-04-08T02:49:18.651Z,98353.25
2023-04-08T02:51:49.392Z,98355.19
2023-04-08T02:54:21.072Z,98350.50
2023-04-08T02:56:52.032Z,98353.28
2023-04-08T02:59:26.568Z,98351.06
2023-04-08T03:02:00.553Z,98330.22
2023-04-08T03:04:31.475Z,98336.53
2023-04-08T03:07:08.685Z,98342.03
2023-04-08T03:09:41.636Z,98357.09
2023-04-08T03:12:15.081Z,98359.84
2023-04-08T03:14:49.000Z,98359.81
2023-04-08T03:17:16.842Z,98352.72
2023-04-08T03:19:47.273Z,98354.91
2023-04-08T03:22:18.835Z,98359.25
2023-04-08T03:24:48.462Z,98335.19
2023-04-08T03:27:17.080Z,98352.72
2023-04-08T03:29:51.459Z,98351.34
2023-04-08T03:32:26.831Z,98349.97
2023-04-08T03:34:55.556Z,98346.44
2023-04-08T03:37:29.782Z,98351.59
2023-04-08T03:40:10.051Z,98347.75
2023-04-08T03:42:47.605Z,98346.94
2023-04-08T03:45:19.022Z,98336.00
2023-04-08T03:47:49.213Z,98346.13
2023-04-08T03:50:33.892Z,98350.78
2023-04-08T03:53:06.789Z,98325.31
2023-04-08T03:55:36.064Z,98339.28
2023-04-08T03:58:11.681Z,98356.81
2023-04-08T04:00:42.263Z,98356.53
2023-04-08T04:03:17.120Z,98358.19
2023-04-08T04:05:53.855Z,98336.00
2023-04-08T04:08:22.243Z,98359.84
2023-04-08T04:11:00.801Z,98366.41
2023-04-08T04:13:36.198Z,98368.06
2023-04-08T04:16:08.382Z,98368.34
2023-04-08T04:18:47.052Z,98367.50
2023-04-08T04:21:30.737Z,98377.09
2023-04-08T04:24:01.143Z,98366.66
2023-04-08T04:26:39.245Z,98377.84
2023-04-08T04:29:13.063Z,98364.44
2023-04-08T04:31:46.472Z,98377.09
2023-04-08T04:37:05.902Z,98375.19
2023-04-08T04:39:36.444Z,98380.66
2023-04-08T04:44:55.036Z,98379.28
2023-04-08T04:47:28.061Z,98377.09
2023-04-08T04:50:06.068Z,98368.28
2023-04-08T04:52:34.249Z,98372.41
2023-04-08T04:55:06.429Z,98377.34
2023-04-08T04:57:42.130Z,98382.31
2023-04-08T05:00:12.654Z,98386.44
2023-04-08T05:02:46.845Z,98384.50
2023-04-08T05:05:20.847Z,98391.63
2023-04-08T05:07:58.012Z,98372.09
2023-04-08T05:10:35.057Z,98395.97
2023-04-08T05:13:15.331Z,98386.66
2023-04-08T05:15:50.871Z,98384.22
2023-04-08T05:18:30.418Z,98387.81
2023-04-08T05:21:00.869Z,98389.44
2023-04-08T05:23:38.093Z,98391.38
2023-04-08T05:26:09.925Z,98395.75
2023-04-08T05:31:25.747Z,98396.00
2023-04-08T05:34:08.195Z,98398.22
2023-04-08T05:36:38.612Z,98402.31
2023-04-08T05:39:10.549Z,98382.53
2023-04-08T05:41:41.329Z,98403.59
2023-04-08T05:44:12.521Z,98410.78
2023-04-08T05:46:49.279Z,98400.34
2023-04-08T05:49:20.214Z,98414.56
2023-04-08T05:51:57.656Z,98414.59
2023-04-08T05:54:39.986Z,98419.75
2023-04-08T05:57:12.951Z,98427.47
2023-04-08T05:59:44.566Z,98426.66
2023-04-08T06:02:15.314Z,98364.97
2023-04-08T06:04:53.365Z,98424.13
2023-04-08T06:07:22.044Z,98421.09
2023-04-08T06:09:55.890Z,98424.88
2023-04-08T06:12:32.440Z,98420.22
2023-04-08T06:15:02.985Z,98427.59
2023-04-08T06:17:38.388Z,98430.63
2023-04-08T06:20:09.705Z,98421.88
2023-04-08T06:22:38.707Z,98408.47
2023-04-08T06:27:57.365Z,98407.88
2023-04-08T06:30:29.923Z,98428.09
2023-04-08T06:33:02.803Z,98408.38
2023-04-08T06:35:36.408Z,98434.69
2023-04-08T06:38:05.828Z,98428.34
2023-04-08T06:40:36.746Z,98423.22
2023-04-08T06:43:11.136Z,98441.84
2023-04-08T06:45:48.484Z,98398.22
2023-04-08T06:48:25.821Z,98437.34
2023-04-08T06:50:53.678Z,98439.75
2023-04-08T06:53:29.435Z,98434.47
2023-04-08T06:55:58.258Z,98439.47
2023-04-08T06:58:36.085Z,98431.22
2023-04-08T07:01:07.421Z,98445.38
2023-04-08T07:03:52.137Z,98447.00
2023-04-08T07:06:29.411Z,98445.94
2023-04-08T07:09:02.139Z,98427.66
2023-04-08T07:11:35.121Z,98445.41
2023-04-08T07:14:10.118Z,98454.63
2023-04-08T07:16:43.910Z,98461.81
2023-04-08T07:19:14.684Z,98459.84
2023-04-08T07:21:43.893Z,98459.59
2023-04-08T07:24:14.892Z,98461.75
2023-04-08T07:27:07.989Z,98445.22
2023-04-08T07:29:36.374Z,98464.47
2023-04-08T07:32:14.265Z,98446.31
2023-04-08T07:34:41.978Z,98464.75
2023-04-08T07:37:12.760Z,98463.69
2023-04-08T07:39:43.305Z,98469.88
2023-04-08T07:42:15.862Z,98475.66
2023-04-08T07:44:53.497Z,98477.06
2023-04-08T07:47:22.848Z,98477.16
2023-04-08T07:50:04.972Z,98478.13
2023-04-08T07:52:34.546Z,98475.78
2023-04-08T07:55:08.341Z,98490.06
2023-04-08T07:57:40.971Z,98493.94
2023-04-08T08:00:24.257Z,98486.94
2023-04-08T08:02:54.988Z,98496.16
2023-04-08T08:05:30.957Z,98490.13
2023-04-08T08:08:04.737Z,98501.31
2023-04-08T08:10:41.776Z,98496.41
2023-04-08T08:13:12.853Z,98475.78
2023-04-08T08:15:43.657Z,98499.34
2023-04-08T08:18:20.178Z,98498.75
2023-04-08T08:20:51.729Z,98502.88
2023-04-08T08:23:26.587Z,98509.13
2023-04-08T08:26:14.215Z,98508.75
2023-04-08T08:28:44.368Z,98517.38
2023-04-08T08:31:15.633Z,98508.56
2023-04-08T08:33:53.380Z,98512.69
2023-04-08T08:36:26.729Z,98512.72
2023-04-08T08:39:07.754Z,98521.00
2023-04-08T08:41:55.277Z,98514.00
2023-04-08T08:44:33.969Z,98518.78
2023-04-08T08:47:13.047Z,98512.56
2023-04-08T08:49:45.919Z,98505.72
2023-04-08T08:52:20.820Z,98515.69
2023-04-08T08:54:54.032Z,98507.75
2023-04-08T08:57:24.760Z,98503.19
2023-04-08T09:00:01.290Z,98511.56
2023-04-08T09:02:34.280Z,98513.97
2023-04-08T09:05:06.128Z,98519.00
2023-04-08T09:07:44.443Z,98498.22
2023-04-08T09:10:23.603Z,98520.28
2023-04-08T09:13:05.876Z,98515.31
2023-04-08T09:15:34.842Z,98514.69
2023-04-08T09:18:10.882Z,98517.94
2023-04-08T09:20:58.329Z,98505.59
2023-04-08T09:23:50.419Z,98517.81
2023-04-08T09:26:29.152Z,98524.00
2023-04-08T09:29:25.539Z,98524.03
2023-04-08T09:32:02.327Z,98519.34
2023-04-08T09:34:36.180Z,98519.53
2023-04-08T09:37:07.639Z,98518.41
2023-04-08T09:39:40.000Z,98513.47
2023-04-08T09:42:13.693Z,98521.63
2023-04-08T09:44:52.038Z,98523.91
2023-04-08T09:47:29.166Z,98517.97
2023-04-08T09:50:08.355Z,98525.44
2023-04-08T09:52:47.610Z,98510.78
2023-04-08T09:55:19.222Z,98512.00
2023-04-08T09:58:19.255Z,98517.84
2023-04-08T10:00:54.369Z,98516.34
2023-04-08T10:03:41.719Z,98515.19
2023-04-08T10:06:17.106Z,98500.38
2023-04-08T10:11:30.199Z,98500.38
2023-04-08T10:13:59.068Z,98511.91
2023-04-08T10:16:32.733Z,98516.19
2023-04-08T10:19:05.972Z,98516.38
2023-04-08T10:21:51.219Z,98519.84
2023-04-08T10:24:26.219Z,98506.69
2023-04-08T10:27:03.891Z,98498.00
2023-04-08T10:29:43.510Z,98517.53
2023-04-08T10:32:34.120Z,98513.31
2023-04-08T10:35:08.300Z,98518.38
2023-04-08T10:37:38.170Z,98511.69
2023-04-08T10:40:14.636Z,98502.81
2023-04-08T10:42:45.977Z,98510.19
2023-04-08T10:45:21.144Z,98504.75
2023-04-08T10:50:42.778Z,98500.06
2023-04-08T10:53:12.688Z,98502.75
2023-04-08T10:55:46.906Z,98503.44
2023-04-08T10:58:18.140Z,98501.59
2023-04-08T11:00:51.937Z,98501.50
2023-04-08T11:06:10.212Z,98497.44
2023-04-08T11:08:41.773Z,98495.47
2023-04-08T11:11:15.887Z,98494.78
2023-04-08T11:13:54.001Z,98489.94
2023-04-08T11:16:28.009Z,98490.88
2023-04-08T11:19:06.890Z,98492.53
2023-04-08T11:21:45.288Z,98487.44
2023-04-08T11:24:19.545Z,98483.03
2023-04-08T11:27:07.542Z,98478.53
2023-04-08T11:29:38.258Z,98475.59
2023-04-08T11:32:09.147Z,98482.09
2023-04-08T11:34:43.960Z,98479.69
2023-04-08T11:37:14.303Z,98473.13
2023-04-08T11:39:48.863Z,98467.91
2023-04-08T11:42:32.286Z,98479.34
2023-04-08T11:45:02.744Z,98473.34
2023-04-08T11:47:37.342Z,98443.66
2023-04-08T11:50:18.995Z,98466.66
2023-04-08T11:52:58.878Z,98456.38
2023-04-08T11:55:38.019Z,98465.47
2023-04-08T11:58:15.189Z,98462.88
2023-04-08T12:00:46.083Z,98459.34
2023-04-08T12:03:15.502Z,98438.72
2023-04-08T12:05:47.494Z,98461.19
2023-04-08T12:08:23.888Z,98461.63
2023-04-08T12:10:52.212Z,98453.09
2023-04-08T12:13:23.566Z,98451.09
2023-04-08T12:15:55.961Z,98452.63
2023-04-08T12:18:33.526Z,98448.91
2023-04-08T12:21:02.292Z,98451.47
2023-04-08T12:23:36.039Z,98437.25
2023-04-08T12:26:08.995Z,98434.00
2023-04-08T12:28:45.268Z,98448.84
2023-04-08T12:31:15.960Z,98436.31
2023-04-08T12:33:46.300Z,98439.41
2023-04-08T12:39:03.345Z,98432.13
2023-04-08T12:41:33.680Z,98437.88
2023-04-08T12:44:11.126Z,98432.34
2023-04-08T12:46:44.733Z,98432.75
2023-04-08T12:49:16.248Z,98433.78
2023-04-08T12:51:46.802Z,98432.38
2023-04-08T12:54:14.600Z,98420.50
2023-04-08T12:56:52.466Z,98420.94
2023-04-08T12:59:23.642Z,98436.97
2023-04-08T13:01:55.532Z,98437.13
2023-04-08T13:04:26.617Z,98434.94
2023-04-08T13:07:00.112Z,98442.38
2023-04-08T13:09:36.399Z,98438.53
2023-04-08T13:12:05.949Z,98430.75
2023-04-08T13:14:36.112Z,98431.91
2023-04-08T13:17:07.973Z,98431.84
2023-04-08T13:19:42.210Z,98430.16
2023-04-08T13:22:12.610Z,98417.28
2023-04-08T13:24:48.085Z,98427.97
2023-04-08T13:27:21.293Z,98411.50
2023-04-08T13:29:57.607Z,98425.06
2023-04-08T13:32:27.381Z,98422.06
2023-04-08T13:34:56.642Z,98420.44
2023-04-08T13:37:24.758Z,98413.69
2023-04-08T13:39:57.668Z,98417.44
2023-04-08T13:42:27.986Z,98403.59
2023-04-08T13:44:55.625Z,98408.84
2023-04-08T13:47:25.384Z,98417.97
2023-04-08T13:49:54.538Z,98415.72
2023-04-08T13:52:24.595Z,98413.28
2023-04-08T13:54:57.498Z,98423.25
2023-04-08T13:57:27.939Z,98412.47
2023-04-08T14:00:01.516Z,98414.56
2023-04-08T14:02:32.257Z,98419.66
2023-04-08T14:05:10.374Z,98422.91
2023-04-08T14:07:40.733Z,98411.66
2023-04-08T14:10:15.448Z,98423.25
2023-04-08T14:12:51.654Z,98427.50
2023-04-08T14:15:23.186Z,98420.13
2023-04-08T14:18:00.804Z,98437.16
2023-04-08T14:20:36.594Z,98417.69
2023-04-08T14:23:06.710Z,98420.13
2023-04-08T14:25:40.266Z,98436.31
2023-04-08T14:28:13.907Z,98435.19
2023-04-08T14:31:01.623Z,98433.69
2023-04-08T14:33:37.461Z,98435.81
2023-04-08T14:36:15.063Z,98434.81
2023-04-08T14:38:44.336Z,98437.75
2023-04-08T14:41:31.040Z,98436.97
2023-04-08T14:44:03.772Z,98430.56
2023-04-08T14:46:34.968Z,98406.22
2023-04-08T14:49:13.694Z,98444.63
2023-04-08T14:51:47.569Z,98443.50
2023-04-08T14:54:19.212Z,98453.91
2023-04-08T14:56:50.950Z,98449.84
2023-04-08T14:59:28.061Z,98445.72
2023-04-08T15:01:57.312Z,98433.94
2023-04-08T15:04:31.122Z,98448.44
2023-04-08T15:07:02.010Z,98441.91
2023-04-08T15:09:35.293Z,98454.91
2023-04-08T15:12:14.946Z,98452.50
2023-04-08T15:14:45.680Z,98445.25
2023-04-08T15:17:19.154Z,98451.81
2023-04-08T15:19:49.784Z,98447.94
2023-04-08T15:22:19.093Z,98452.25
2023-04-08T15:24:50.552Z,98455.94
2023-04-08T15:27:20.882Z,98445.63
2023-04-08T15:29:51.033Z,98457.75
2023-04-08T15:32:21.487Z,98448.53
2023-04-08T15:34:53.271Z,98463.72
2023-04-08T15:37:25.126Z,98459.75
2023-04-08T15:39:55.201Z,98461.25
2023-04-08T15:42:29.085Z,98467.25
2023-04-08T15:45:00.628Z,98472.69
2023-04-08T15:47:38.289Z,98473.84
2023-04-08T15:50:20.411Z,98474.66
2023-04-08T15:52:54.283Z,98469.75
2023-04-08T15:55:25.995Z,98476.22
2023-04-08T15:58:07.659Z,98477.09
2023-04-08T16:01:00.780Z,98470.06
2023-04-08T16:03:32.413Z,98477.41
2023-04-08T16:06:10.257Z,98478.28
2023-04-08T16:08:50.456Z,98487.22
2023-04-08T16:11:22.773Z,98459.25
2023-04-08T16:13:53.968Z,98492.47
2023-04-08T16:16:34.340Z,98488.78
2023-04-08T16:19:06.832Z,98495.16
2023-04-08T16:21:43.164Z,98503.16
2023-04-08T16:24:14.661Z,98498.78
2023-04-08T16:26:43.760Z,98507.59
2023-04-08T16:29:14.455Z,98513.94
2023-04-08T16:31:49.952Z,98520.75
2023-04-08T16:34:21.738Z,98479.19
2023-04-08T16:36:52.944Z,98508.47
2023-04-08T16:39:23.278Z,98514.72
2023-04-08T16:41:59.490Z,98479.25
2023-04-08T16:44:36.959Z,98527.13
2023-04-08T16:47:09.426Z,98529.56
2023-04-08T16:49:39.660Z,98542.81
2023-04-08T16:52:13.746Z,98548.09
2023-04-08T16:57:32.282Z,98537.56
2023-04-08T17:00:00.621Z,98551.50
2023-04-08T17:02:31.828Z,98563.56
2023-04-08T17:05:02.806Z,98521.72
2023-04-08T17:07:34.474Z,98565.63
2023-04-08T17:12:55.653Z,98577.25
2023-04-08T17:15:30.742Z,98577.81
2023-04-08T17:17:59.954Z,98589.28
2023-04-08T17:20:30.989Z,98595.34
2023-04-08T17:23:07.743Z,98599.91
2023-04-08T17:25:35.685Z,98603.03
2023-04-08T17:28:05.127Z,98600.78
2023-04-08T17:30:36.160Z,98614.22
2023-04-08T17:33:12.862Z,98605.16
2023-04-08T17:35:46.752Z,98622.63
2023-04-08T17:38:24.185Z,98627.22
2023-04-08T17:41:09.738Z,98636.72
2023-04-08T17:43:44.097Z,98627.09
2023-04-08T17:46:15.200Z,98640.91
2023-04-08T17:48:44.704Z,98645.59
2023-04-08T17:51:14.590Z,98644.50
2023-04-08T17:53:51.124Z,98638.81
2023-04-08T17:56:25.350Z,98651.66
2023-04-08T17:58:54.125Z,98660.22
2023-04-08T18:01:30.610Z,98671.50
2023-04-08T18:04:02.330Z,98677.50
2023-04-08T18:06:32.492Z,98693.16
2023-04-08T18:09:07.679Z,98694.94
2023-04-08T18:11:37.788Z,98677.13
2023-04-08T18:14:11.274Z,98701.06
2023-04-08T18:16:40.765Z,98710.56
2023-04-08T18:19:10.010Z,98716.06
2023-04-08T18:21:41.331Z,98724.50
2023-04-08T18:24:14.708Z,98730.59
2023-04-08T18:26:45.411Z,98729.66
2023-04-08T18:29:21.582Z,98736.66
2023-04-08T18:31:52.785Z,98734.81
2023-04-08T18:34:20.813Z,98724.19
2023-04-08T18:36:52.410Z,98733.56
2023-04-08T18:39:32.182Z,98753.63
2023-04-08T18:42:15.777Z,98760.03
2023-04-08T18:44:44.015Z,98761.38
2023-04-08T18:47:15.581Z,98762.19
2023-04-08T18:49:43.773Z,98765.78
2023-04-08T18:52:21.608Z,98778.16
2023-04-08T18:54:57.211Z,98773.47
2023-04-08T18:57:31.682Z,98780.38
2023-04-08T18:59:59.638Z,98785.09
2023-04-08T19:02:27.638Z,98791.16
2023-04-08T19:05:04.385Z,98794.69
2023-04-08T19:07:45.496Z,98792.78
2023-04-08T19:10:23.878Z,98782.09
2023-04-08T19:13:00.767Z,98801.09
2023-04-08T19:15:31.209Z,98803.53
2023-04-08T19:18:01.784Z,98808.47
2023-04-08T19:20:33.254Z,98802.75
2023-04-08T19:23:08.997Z,98795.06
2023-04-08T19:25:47.245Z,98813.47
2023-04-08T19:28:19.012Z,98825.84
2023-04-08T19:30:50.952Z,98821.47
2023-04-08T19:33:26.123Z,98822.31
2023-04-08T19:35:57.383Z,98823.94
2023-04-08T19:38:31.114Z,98822.31
2023-04-08T19:41:04.833Z,98824.78
2023-04-08T19:43:35.255Z,98814.06
2023-04-08T19:46:11.060Z,98828.66
2023-04-08T19:48:42.223Z,98810.25
2023-04-08T19:51:26.145Z,98830.88
2023-04-08T19:54:01.462Z,98811.88
2023-04-08T19:56:35.891Z,98841.25
2023-04-08T19:59:10.220Z,98822.59
2023-04-08T20:04:27.869Z,98846.25
2023-04-08T20:07:06.279Z,98841.84
2023-04-08T20:09:40.061Z,98845.72
2023-04-08T20:12:10.830Z,98844.31
2023-04-08T20:14:45.805Z,98852.31
2023-04-08T20:17:15.589Z,98834.72
2023-04-08T20:19:45.976Z,98850.94
2023-04-08T20:22:15.174Z,98847.38
2023-04-08T20:24:51.598Z,98853.44
2023-04-08T20:30:14.214Z,98857.28
2023-04-08T20:32:42.219Z,98852.88
2023-04-08T20:35:20.413Z,98860.31
2023-04-08T20:37:51.157Z,98861.13
2023-04-08T20:40:35.929Z,98855.63
2023-04-08T20:43:06.773Z,98853.16
2023-04-08T20:45:37.651Z,98871.84
2023-04-08T20:48:11.125Z,98867.97
2023-04-08T20:50:41.666Z,98871.28
2023-04-08T20:53:17.535Z,98863.59
2023-04-08T20:55:50.411Z,98860.84
2023-04-08T20:58:23.918Z,98812.22
2023-04-08T21:01:05.254Z,98860.88
2023-04-08T21:03:36.239Z,98861.16
2023-04-08T21:06:13.458Z,98869.94
2023-04-08T21:08:47.200Z,98862.22
2023-04-08T21:11:33.422Z,98869.38
2023-04-08T21:14:03.858Z,98883.69
2023-04-08T21:16:37.877Z,98883.69
2023-04-08T21:19:11.376Z,98864.72
2023-04-08T21:24:32.024Z,98885.88
2023-04-08T21:27:02.151Z,98890.00
2023-04-08T21:29:36.051Z,98836.09
2023-04-08T21:37:38.462Z,98897.44
2023-04-08T21:40:09.561Z,98902.94
2023-04-08T21:42:39.870Z,98901.03
2023-04-08T21:45:15.759Z,98912.31
2023-04-08T21:47:53.170Z,98913.94
2023-04-08T21:50:26.500Z,98917.50
2023-04-08T21:52:58.720Z,98917.78
2023-04-08T21:55:29.468Z,98919.44
2023-04-08T21:58:02.879Z,98913.91
2023-04-08T22:00:33.388Z,98911.41
2023-04-08T22:03:15.932Z,98907.00
2023-04-08T22:05:53.159Z,98913.84
2023-04-08T22:08:35.799Z,98920.19
2023-04-08T22:11:13.866Z,98911.13
2023-04-08T22:13:48.663Z,98896.81
2023-04-08T22:16:23.082Z,98916.63
2023-04-08T22:18:52.476Z,98917.47
2023-04-08T22:21:27.814Z,98865.13
2023-04-08T22:24:04.422Z,98925.94
2023-04-08T22:26:39.125Z,98922.34
2023-04-08T22:29:15.662Z,98924.81
2023-04-08T22:31:43.822Z,98927.53
2023-04-08T22:34:14.674Z,98922.66
2023-04-08T22:36:46.421Z,98912.75
2023-04-08T22:39:17.441Z,98920.69
2023-04-08T22:41:54.500Z,98915.41
2023-04-08T22:44:26.009Z,98927.78
2023-04-08T22:47:01.224Z,98897.56
2023-04-08T22:49:36.051Z,98925.38
2023-04-08T22:52:15.143Z,98916.34
2023-04-08T22:54:42.863Z,98919.09
2023-04-08T22:57:12.123Z,98918.75
2023-04-08T22:59:44.384Z,98927.03
2023-04-08T23:02:17.142Z,98931.97
2023-04-08T23:04:47.761Z,98928.97
2023-04-08T23:07:26.139Z,98935.25
2023-04-08T23:09:57.537Z,98937.19
2023-04-08T23:12:29.038Z,98927.50
2023-04-08T23:17:46.011Z,98940.69
2023-04-08T23:23:03.136Z,98942.06
2023-04-08T23:25:39.731Z,98945.56
2023-04-08T23:28:09.960Z,98945.56
2023-04-08T23:33:23.245Z,98950.09
2023-04-08T23:35:56.588Z,98941.25
2023-04-08T23:38:32.737Z,98920.81
2023-04-08T23:41:15.683Z,98938.75
2023-04-08T23:43:47.304Z,98947.84
2023-04-08T23:49:02.522Z,98940.75
2023-04-08T23:51:33.526Z,98951.13
2023-04-08T23:54:04.146Z,98945.91
2023-04-08T23:56:38.089Z,98940.13
2023-04-08T23:59:09.216Z,98877.34
